createdAt,value
2018-01-23T00:01:32.596Z,92.1
2018-01-23T00:11:32.207Z,93.9
2018-01-23T00:21:26.561Z,96.2
2018-01-23T00:31:32.210Z,88.7
2018-01-23T00:41:28.171Z,90.0
2018-01-23T00:51:26.388Z,88.7
2018-01-23T01:01:29.135Z,90.1
2018-01-23T01:11:26.216Z,96.3
2018-01-23T01:21:27.179Z,99.3
2018-01-23T01:31:26.732Z,114.9
2018-01-23T01:41:27.003Z,132.0
2018-01-23T01:51:26.729Z,134.4
2018-01-23T02:01:28.583Z,132.0
2018-01-23T02:11:33.074Z,133.5
2018-01-23T02:21:31.589Z,130.2
2018-01-23T02:31:26.269Z,118.4
2018-01-23T02:41:32.242Z,130.2
2018-01-23T02:51:31.989Z,117.8
2018-01-23T03:01:33.115Z,108.4
2018-01-23T03:11:26.732Z,115.2
2018-01-23T03:21:28.849Z,85.9
2018-01-23T03:31:27.366Z,91.5
2018-01-23T03:41:26.526Z,77.6
2018-01-23T03:51:29.339Z,67.9
2018-01-23T04:01:32.175Z,74.3
2018-01-23T04:11:32.571Z,72.7
2018-01-23T04:21:26.446Z,56.5
2018-01-23T04:31:34.333Z,54.6
2018-01-23T04:41:33.127Z,66.8
2018-01-23T04:51:32.337Z,64.0
2018-01-23T05:01:26.710Z,59.8
2018-01-23T05:11:32.508Z,68.7
2018-01-23T05:21:32.493Z,63.7
2018-01-23T05:31:27.597Z,66.4
2018-01-23T05:41:32.372Z,78.2
2018-01-23T05:51:33.213Z,75.2
2018-01-23T06:01:31.813Z,73.6
2018-01-23T06:11:29.428Z,71.7
2018-01-23T06:21:32.264Z,72.4
2018-01-23T06:31:28.782Z,76.0
2018-01-23T06:41:26.949Z,74.4
2018-01-23T06:51:32.032Z,67.6
2018-01-23T07:01:29.855Z,69.4
2018-01-23T07:11:27.736Z,71.7
2018-01-23T07:21:28.550Z,83.1
2018-01-23T07:31:33.052Z,94.0
2018-01-23T07:41:28.645Z,81.1
2018-01-23T07:55:48.344Z,81.1
2018-01-23T08:01:34.094Z,97.4
2018-01-23T08:11:29.228Z,99.2
2018-01-23T08:21:26.618Z,98.2
2018-01-23T08:31:27.904Z,107.5
2018-01-23T08:41:31.553Z,112.5
2018-01-23T08:51:32.167Z,106.7
2018-01-23T09:01:27.166Z,90.5
2018-01-23T09:11:32.207Z,75.4
2018-01-23T09:21:32.354Z,85.7
2018-01-23T09:31:27.382Z,69.4
2018-01-23T09:41:26.613Z,80.8
2018-01-23T09:51:33.140Z,74.8
2018-01-23T10:01:26.322Z,88.8
2018-01-23T10:11:27.002Z,80.1
2018-01-23T10:21:34.354Z,63.8
2018-01-23T10:31:27.938Z,72.3
2018-01-23T10:41:26.080Z,67.1
2018-01-23T10:51:26.237Z,86.0
2018-01-23T11:01:27.301Z,68.2
2018-01-23T11:11:29.158Z,64.5
2018-01-23T11:21:28.499Z,58.5
2018-01-23T11:31:26.695Z,54.9
2018-01-23T11:41:32.588Z,65.3
2018-01-23T11:51:26.272Z,75.1
2018-01-23T12:01:29.972Z,74.1
2018-01-23T12:11:27.257Z,72.4
2018-01-23T12:21:29.586Z,74.1
2018-01-23T12:31:28.655Z,73.2
2018-01-23T12:41:27.095Z,96.1
2018-01-23T12:51:31.728Z,80.0
2018-01-23T13:01:34.640Z,81.3
2018-01-23T13:11:32.297Z,69.0
2018-01-23T13:21:26.669Z,78.3
2018-01-23T13:31:27.115Z,76.9
2018-01-23T13:41:26.847Z,74.6
2018-01-23T13:51:27.000Z,70.4
2018-01-23T14:01:26.158Z,78.0
2018-01-23T14:11:26.311Z,92.3
2018-01-23T14:21:33.298Z,83.0
2018-01-23T14:31:32.065Z,88.7
2018-01-23T14:41:32.913Z,90.1
2018-01-23T14:51:32.438Z,83.9
2018-01-23T15:01:32.357Z,91.5
2018-01-23T15:11:32.007Z,96.5
2018-01-23T15:21:26.369Z,104.6
2018-01-23T15:31:32.040Z,106.7
2018-01-23T15:41:31.681Z,104.7
2018-01-23T15:51:28.062Z,117.7
2018-01-23T16:01:33.138Z,122.0
2018-01-23T16:11:26.563Z,113.8
2018-01-23T16:21:29.355Z,128.8
2018-01-23T16:31:26.522Z,121.5
2018-01-23T16:41:28.043Z,127.5
2018-01-23T16:51:31.585Z,126.6
2018-01-23T17:01:26.808Z,125.2
2018-01-23T17:11:31.450Z,141.8
2018-01-23T17:21:29.946Z,121.1
2018-01-23T17:31:26.019Z,121.5
2018-01-23T17:41:27.281Z,122.3
2018-01-23T17:51:28.862Z,113.0
2018-01-23T18:01:25.942Z,123.3
2018-01-23T18:11:26.473Z,127.8
2018-01-23T18:21:32.873Z,127.7
2018-01-23T18:31:27.469Z,133.8
2018-01-23T18:41:26.788Z,114.6
2018-01-23T18:51:27.797Z,130.5
2018-01-23T19:01:29.336Z,111.5
2018-01-23T19:11:26.441Z,129.4
2018-01-23T19:21:26.836Z,123.4
2018-01-23T19:31:31.773Z,121.3
2018-01-23T19:41:28.324Z,109.0
2018-01-23T19:51:28.139Z,118.5
2018-01-23T20:01:28.751Z,115.6
2018-01-23T20:11:32.648Z,115.4
2018-01-23T20:21:31.438Z,115.7
2018-01-23T20:31:26.942Z,117.6
2018-01-23T20:41:28.091Z,126.0
2018-01-23T20:51:30.125Z,115.7
2018-01-23T21:01:26.769Z,116.8
2018-01-23T21:11:28.651Z,117.6
2018-01-23T21:21:26.063Z,117.9
2018-01-23T21:31:28.231Z,111.0
2018-01-23T21:41:26.276Z,129.5
2018-01-23T21:51:26.364Z,122.6
2018-01-23T22:01:28.934Z,132.2
2018-01-23T22:11:33.828Z,124.5
2018-01-23T22:21:27.597Z,138.0
2018-01-23T22:31:27.043Z,151.6
2018-01-23T22:41:28.473Z,137.4
2018-01-23T22:51:29.041Z,133.2
2018-01-23T23:01:26.493Z,144.5
2018-01-23T23:11:27.582Z,137.4
2018-01-23T23:21:28.136Z,135.3
2018-01-23T23:31:27.163Z,149.4
2018-01-23T23:41:27.741Z,137.6
2018-01-23T23:51:26.448Z,146.5
